ROMMA est une association bénévole à but non lucratif. Votre soutien est indispensable : ADHERER à ROMMA ou FAIRE un DON

Voiron - (38, Isère)

Voironnais (300 m)   Longitude: 05° 35' E   Latitude: 45° 23' N Station partenaire n°109
 

Détail journalier du     <<     >>

Température Precipitation Humidité Pression Vent Dir Rafale Dir. rafale Ensol.
Heure (°C) (mm) (%) (hPa) (km/h) (km/h) (min)
01:00 13.709010212NNE11E0
02:00 12.909110215NNE15ESE0
03:00 13.509010212NNE19E0
04:00 13.309010215E18ESE0
05:00 13.508910213NNE15ENE0
06:00 13.309010205ENE23ENE0
07:00 13.2091102105ENE0
08:00 13.508810216NE21ENE0
09:00 13.908710214NE18ENE0
10:00 14.808410217E18NE30
11:00 16.807710213E15ESE60
12:00 17.807410215ENE16SSE60
13:00 18.107610204NE11SSO60
14:00 18.307510206NNO18NNO60
15:00 18.707410206ENE16ESE60
16:00 18.407410204N15ENE60
17:00 15.608210209N24NNE60
18:00 14.308510206ENE24E0
19:00 13.408710211OSO6OSO0
20:00 13.108910212S13E0
21:00 13.108810206ENE21E0
22:00 13.108910212N15NE0
23:00 13.208810213N18ESE0
minuit 13.308710212E15ESE0

Graphique du 30-10-2019

 

Serveur OMMA